Time;durP1;ratioP1;P1;durP2;ratioP2;P2;SDS_P1;SDS_P2;PMS_P1;PMS_P2;Temp;Humidity;BMP_temperature;BMP_pressure;BME280_temperature;BME280_humidity;BME280_pressure;Samples;Min_cycle;Max_cycle;Signal;HPM_P1;HPM_P2
2022/05/01 00:00:27;;;;;;;6.33;3.90;;;;;;;7.47;52.88;100222.73;1728182;82;21644;-63
2022/05/01 00:02:56;;;;;;;6.53;3.98;;;;;;;7.49;52.97;100220.95;1702495;82;21479;-63
2022/05/01 00:05:23;;;;;;;4.62;3.40;;;;;;;7.48;53.02;100220.52;1685222;83;20939;-63
2022/05/01 00:07:49;;;;;;;7.03;3.33;;;;;;;7.48;53.11;100223.13;1720110;82;28217;-61
2022/05/01 00:10:16;;;;;;;7.37;3.53;;;;;;;7.45;53.10;100223.20;1718427;81;20916;-63
2022/05/01 00:12:43;;;;;;;4.90;3.58;;;;;;;7.42;53.21;100220.69;1724050;82;21591;-63
2022/05/01 00:15:10;;;;;;;8.47;3.97;;;;;;;7.37;53.25;100226.87;1726694;82;21306;-62
2022/05/01 00:17:37;;;;;;;5.17;3.22;;;;;;;7.32;53.29;100228.73;1730992;82;21642;-63
2022/05/01 00:20:05;;;;;;;7.03;3.52;;;;;;;7.28;53.36;100227.13;1704042;83;20938;-63
2022/05/01 00:22:32;;;;;;;5.03;3.12;;;;;;;7.26;53.45;100226.30;1693277;82;20841;-63
2022/05/01 00:24:58;;;;;;;6.12;3.77;;;;;;;7.23;53.49;100226.38;1731523;81;20916;-63
2022/05/01 00:27:25;;;;;;;12.25;3.60;;;;;;;7.20;53.58;100219.97;1703716;82;21503;-63
2022/05/01 00:29:52;;;;;;;6.23;3.73;;;;;;;7.17;53.66;100221.34;1730888;82;20917;-63
2022/05/01 00:32:19;;;;;;;9.83;3.87;;;;;;;7.14;53.68;100216.20;1702719;82;33796;-62
2022/05/01 00:37:31;;;;;;;6.53;3.47;;;;;;;7.13;53.81;100211.91;1730330;81;20971;-63
2022/05/01 00:39:58;;;;;;;5.62;3.47;;;;;;;7.11;53.87;100211.09;1703452;82;21089;-63
2022/05/01 00:42:25;;;;;;;5.47;3.03;;;;;;;7.08;53.98;100211.17;1729105;82;20981;-62
2022/05/01 00:44:51;;;;;;;10.18;2.87;;;;;;;7.05;54.05;100211.25;1725839;81;21592;-63
2022/05/01 00:47:18;;;;;;;4.55;3.33;;;;;;;7.02;54.13;100219.97;1724312;81;20969;-63
2022/05/01 00:49:44;;;;;;;5.30;3.05;;;;;;;7.00;54.20;100215.70;1721215;81;21051;-62
2022/05/01 00:52:12;;;;;;;10.13;4.00;;;;;;;6.99;54.23;100221.79;1738736;81;21936;-63
2022/05/01 00:54:42;;;;;;;5.08;3.40;;;;;;;6.99;54.25;100214.00;1719786;81;21007;-63
2022/05/01 00:57:10;;;;;;;4.45;2.72;;;;;;;7.01;54.30;100214.83;1726722;81;20901;-63
2022/05/01 00:59:37;;;;;;;12.15;4.10;;;;;;;7.03;54.39;100213.02;1727749;80;20903;-63
2022/05/01 01:02:06;;;;;;;4.45;2.90;;;;;;;7.03;54.45;100218.22;1720389;82;20957;-63
2022/05/01 01:04:33;;;;;;;4.58;3.40;;;;;;;7.03;54.48;100215.62;1711788;82;21121;-63
2022/05/01 01:07:00;;;;;;;4.60;3.45;;;;;;;7.05;54.54;100206.05;1738638;81;20905;-63
2022/05/01 01:09:27;;;;;;;4.92;3.15;;;;;;;7.05;54.65;100208.66;1716732;81;21145;-63
2022/05/01 01:14:42;;;;;;;4.72;3.10;;;;;;;7.03;54.74;100202.64;1713787;81;20957;-63
2022/05/01 01:17:07;;;;;;;5.35;3.60;;;;;;;7.00;54.87;100210.50;1724404;81;21171;-63
2022/05/01 01:19:34;;;;;;;4.03;2.87;;;;;;;6.98;54.91;100204.52;1721128;82;21024;-62
2022/05/01 01:22:03;;;;;;;7.20;3.83;;;;;;;6.97;54.99;100207.98;1706061;81;21016;-63
2022/05/01 01:24:30;;;;;;;5.95;3.83;;;;;;;7.01;55.04;100209.64;1724754;81;20883;-63
2022/05/01 01:26:57;;;;;;;4.97;3.60;;;;;;;7.03;55.08;100200.04;1726399;81;20957;-63
2022/05/01 01:32:13;;;;;;;6.30;3.55;;;;;;;7.07;55.21;100206.87;1738746;81;20990;-63
2022/05/01 01:34:42;;;;;;;5.80;3.52;;;;;;;7.09;55.33;100205.11;1723145;82;20955;-62
2022/05/01 01:37:11;;;;;;;5.70;3.27;;;;;;;7.09;55.36;100207.70;1715315;82;20933;-62
2022/05/01 01:39:39;;;;;;;6.55;3.30;;;;;;;7.07;55.38;100199.09;1742792;82;21180;-63
2022/05/01 01:42:08;;;;;;;7.28;3.50;;;;;;;7.05;55.41;100198.27;1704099;81;21092;-63
2022/05/01 01:44:37;;;;;;;4.72;3.10;;;;;;;7.01;55.46;100198.80;1736659;82;22124;-63
2022/05/01 01:47:05;;;;;;;7.12;3.47;;;;;;;7.00;55.49;100202.72;1747427;81;20932;-63
2022/05/01 01:49:32;;;;;;;3.25;2.83;;;;;;;7.00;55.57;100198.82;1715330;81;21573;-63
2022/05/01 01:51:59;;;;;;;6.33;3.40;;;;;;;6.98;55.56;100198.88;1714756;82;20900;-63
2022/05/01 01:54:26;;;;;;;5.53;3.20;;;;;;;6.94;55.57;100201.97;1734115;81;21058;-62
2022/05/01 01:56:52;;;;;;;5.20;3.08;;;;;;;6.91;55.63;100204.64;1704648;82;20953;-63
2022/05/01 01:59:19;;;;;;;5.20;2.93;;;;;;;6.82;55.64;100185.86;1718201;81;21472;-62
2022/05/01 02:01:46;;;;;;;4.35;2.95;;;;;;;6.91;55.75;100203.34;1722196;81;21235;-62
2022/05/01 02:04:12;;;;;;;4.43;3.03;;;;;;;6.89;55.76;100203.86;1717961;82;21014;-63
2022/05/01 02:06:39;;;;;;;6.83;3.27;;;;;;;6.86;55.80;100214.31;1728425;82;21580;-62
2022/05/01 02:09:07;;;;;;;5.70;3.07;;;;;;;6.84;55.88;100207.00;1717620;81;20961;-64
2022/05/01 02:11:35;;;;;;;5.35;2.90;;;;;;;6.85;55.94;100213.04;1724117;81;21015;-63
2022/05/01 02:14:02;;;;;;;5.30;2.70;;;;;;;6.82;55.95;100203.58;1708721;81;21002;-63
2022/05/01 02:16:29;;;;;;;5.47;3.37;;;;;;;6.83;56.01;100206.57;1721702;81;20926;-62
2022/05/01 02:18:56;;;;;;;5.08;3.20;;;;;;;6.82;56.08;100207.48;1720391;81;21104;-62
2022/05/01 02:21:35;;;;;;;5.90;3.40;;;;;;;6.82;56.14;100216.56;1692040;83;21032;-62
2022/05/01 02:24:09;;;;;;;6.30;3.20;;;;;;;6.83;56.16;100209.17;1732260;81;20923;-63
2022/05/01 02:26:36;;;;;;;6.70;2.98;;;;;;;6.85;56.29;100215.19;1712650;82;20912;-63
2022/05/01 02:29:10;;;;;;;;;;;;;;;6.89;56.26;100214.66;1725437;82;21480;-63
2022/05/01 02:31:39;;;;;;;5.42;3.00;;;;;;;6.91;56.47;100209.84;1703258;83;21149;-63
2022/05/01 02:34:06;;;;;;;6.22;3.05;;;;;;;6.94;56.44;100207.16;1709397;82;21012;-63
2022/05/01 02:36:33;;;;;;;5.90;3.15;;;;;;;6.94;56.49;100207.16;1699853;82;20888;-63
2022/05/01 02:38:59;;;;;;;7.40;3.33;;;;;;;6.94;56.48;100203.27;1707011;82;20877;-63
2022/05/01 02:41:28;;;;;;;6.37;3.40;;;;;;;6.98;56.55;100205.37;1729941;81;20940;-62
2022/05/01 02:43:56;;;;;;;4.97;3.20;;;;;;;6.97;56.51;100200.20;1743090;81;21079;-63
2022/05/01 02:46:25;;;;;;;3.60;3.20;;;;;;;6.93;56.57;100205.47;1709965;82;20918;-63
2022/05/01 02:48:51;;;;;;;4.67;3.42;;;;;;;6.93;56.65;100208.06;1731015;81;21076;-63
2022/05/01 02:51:19;;;;;;;4.53;3.47;;;;;;;6.92;56.66;100206.37;1724029;81;21080;-62
2022/05/01 02:53:45;;;;;;;4.37;3.50;;;;;;;6.91;56.67;100202.05;1725701;81;21572;-63
2022/05/01 02:56:13;;;;;;;5.87;3.83;;;;;;;6.91;56.71;100200.75;1710993;82;21103;-63
2022/05/01 02:58:39;;;;;;;4.67;3.33;;;;;;;6.83;56.88;100206.57;1723646;82;20949;-63
2022/05/01 03:01:06;;;;;;;4.33;3.47;;;;;;;6.78;57.02;100200.66;1730241;81;20945;-62
2022/05/01 03:03:33;;;;;;;9.20;4.15;;;;;;;6.73;57.07;100201.22;1705643;82;20997;-63
2022/05/01 03:05:59;;;;;;;4.63;3.47;;;;;;;6.64;57.23;100202.73;1699094;83;21436;-63
2022/05/01 03:08:27;;;;;;;7.47;4.23;;;;;;;6.61;57.40;100202.78;1726487;82;21938;-63
2022/05/01 03:10:54;;;;;;;7.55;4.12;;;;;;;6.61;57.44;100207.97;1715606;81;21142;-63
2022/05/01 03:13:21;;;;;;;5.03;3.30;;;;;;;6.62;57.54;100201.91;1708994;83;20993;-62
2022/05/01 03:15:48;;;;;;;6.53;3.92;;;;;;;6.63;57.65;100203.61;1711319;82;20945;-62
2022/05/01 03:23:46;;;;;;;6.30;3.92;;;;;;;6.63;57.79;100198.42;1716388;82;20998;-63
2022/05/01 03:26:13;;;;;;;10.40;4.35;;;;;;;6.62;57.84;100198.02;1716708;82;20869;-63
2022/05/01 03:28:40;;;;;;;7.35;3.92;;;;;;;6.63;57.90;100199.27;1714878;82;21452;-63
2022/05/01 03:31:09;;;;;;;6.27;3.93;;;;;;;6.63;57.94;100199.72;1715169;82;21588;-63
2022/05/01 03:33:36;;;;;;;5.67;3.33;;;;;;;6.63;58.06;100196.67;1701980;83;22700;-62
2022/05/01 03:36:06;;;;;;;6.53;3.55;;;;;;;6.63;58.09;100193.23;1716163;81;21543;-62
2022/05/01 03:38:39;;;;;;;5.70;3.70;;;;;;;6.64;58.15;100198.84;1727215;82;20905;-62
2022/05/01 03:41:09;;;;;;;6.35;4.12;;;;;;;6.65;58.19;100199.24;1714373;82;20891;-62
2022/05/01 03:43:37;;;;;;;8.48;4.50;;;;;;;6.64;58.18;100202.73;1714386;83;21005;-63
2022/05/01 03:46:07;;;;;;;7.62;4.35;;;;;;;6.66;58.21;100203.53;1715909;82;21135;-63
2022/05/01 03:48:33;;;;;;;8.35;4.08;;;;;;;6.69;58.25;100206.05;1713366;82;20903;-63
2022/05/01 03:51:00;;;;;;;7.83;3.92;;;;;;;6.71;58.25;100205.58;1718336;82;21495;-63
2022/05/01 03:53:27;;;;;;;8.60;3.97;;;;;;;6.72;58.35;100198.19;1690496;83;20994;-63
2022/05/01 03:55:54;;;;;;;11.60;4.05;;;;;;;6.73;58.31;100200.77;1724666;81;20909;-63
2022/05/01 03:58:21;;;;;;;5.63;3.77;;;;;;;6.77;58.34;100193.75;1709753;82;21943;-63
2022/05/01 04:00:48;;;;;;;6.78;3.55;;;;;;;6.84;58.40;100195.32;1724811;82;20963;-63
2022/05/01 04:03:18;;;;;;;5.95;3.50;;;;;;;6.87;58.39;100192.65;1685690;83;26696;-63
2022/05/01 04:05:46;;;;;;;6.37;3.45;;;;;;;6.93;58.41;100187.30;1720025;82;20949;-63
2022/05/01 04:08:12;;;;;;;5.22;3.77;;;;;;;7.00;58.43;100194.92;1719037;81;21019;-63
2022/05/01 04:10:41;;;;;;;6.20;3.92;;;;;;;7.03;58.52;100193.55;1725199;82;21432;-63
2022/05/01 04:13:10;;;;;;;5.28;3.62;;;;;;;7.07;58.49;100201.69;1710552;83;20966;-63
2022/05/01 04:15:37;;;;;;;7.50;3.92;;;;;;;7.12;58.44;100194.64;1714006;82;20951;-63
2022/05/01 04:18:05;;;;;;;7.28;4.42;;;;;;;7.13;58.45;100204.13;1697371;82;20922;-62
2022/05/01 04:20:38;;;;;;;7.55;3.80;;;;;;;7.14;58.50;100198.02;1719474;81;21546;-63
2022/05/01 04:23:07;;;;;;;4.95;3.40;;;;;;;7.12;58.45;100201.98;1690978;82;21161;-63
2022/05/01 04:25:34;;;;;;;5.33;3.58;;;;;;;7.11;58.61;100204.17;1671672;83;20982;-63
2022/05/01 04:28:08;;;;;;;6.05;3.83;;;;;;;7.12;58.56;100199.83;1725631;81;20933;-63
2022/05/01 04:30:36;;;;;;;5.87;3.52;;;;;;;7.14;58.62;100205.81;1726508;81;20912;-63
2022/05/01 04:33:05;;;;;;;;;;;;;;;7.13;58.66;100201.52;1707138;81;20917;-62
2022/05/01 04:35:45;;;;;;;9.33;3.90;;;;;;;7.11;58.78;100209.38;1734686;81;21279;-62
2022/05/01 04:38:15;;;;;;;5.97;3.75;;;;;;;7.07;58.84;100204.28;1732831;81;20974;-63
2022/05/01 04:40:45;;;;;;;5.25;3.90;;;;;;;7.10;58.77;100214.59;1724397;81;21413;-62
2022/05/01 04:43:18;;;;;;;4.67;3.77;;;;;;;7.13;58.78;100217.11;1725720;81;20922;-63
2022/05/01 04:45:48;;;;;;;6.58;3.80;;;;;;;7.14;58.84;100216.20;1724247;81;20933;-63
2022/05/01 04:48:17;;;;;;;6.92;3.60;;;;;;;7.15;58.95;100220.52;1742792;82;21039;-63
2022/05/01 04:50:45;;;;;;;11.57;3.52;;;;;;;7.17;58.94;100222.20;1710501;82;21025;-63
2022/05/01 04:53:14;;;;;;;7.87;4.45;;;;;;;7.19;59.07;100222.14;1740552;81;21055;-62
2022/05/01 04:55:43;;;;;;;8.05;3.70;;;;;;;7.20;59.18;100227.77;1713822;82;21585;-63
2022/05/01 04:58:11;;;;;;;6.55;3.77;;;;;;;7.19;59.51;100226.03;1720756;82;20970;-63
2022/05/01 05:00:38;;;;;;;8.93;4.17;;;;;;;7.18;59.72;100230.83;1705956;81;21109;-63
2022/05/01 05:03:05;;;;;;;6.43;3.83;;;;;;;7.16;59.89;100227.41;1713838;81;20899;-63
2022/05/01 05:05:38;;;;;;;7.35;3.90;;;;;;;7.10;59.82;100231.02;1737676;81;20943;-62
2022/05/01 05:10:50;;;;;;;6.85;4.28;;;;;;;7.09;60.31;100235.81;1710584;82;20878;-64
2022/05/01 05:13:22;;;;;;;7.92;4.15;;;;;;;7.06;60.39;100234.59;1676222;82;21102;-60
2022/05/01 05:15:47;;;;;;;9.28;4.60;;;;;;;7.07;60.51;100241.94;1702496;82;21053;-63
2022/05/01 05:18:15;;;;;;;9.28;4.45;;;;;;;7.06;60.57;100236.34;1732786;81;20969;-62
2022/05/01 05:20:42;;;;;;;6.17;4.35;;;;;;;7.13;60.65;100237.88;1694963;83;20975;-62
2022/05/01 05:23:09;;;;;;;7.45;4.28;;;;;;;7.15;60.86;100238.70;1707436;82;20921;-64
2022/05/01 05:25:36;;;;;;;6.03;4.37;;;;;;;7.15;60.91;100243.89;1727297;81;21135;-61
2022/05/01 05:28:07;;;;;;;9.55;4.15;;;;;;;7.18;61.10;100247.27;1743536;80;21456;-63
2022/05/01 05:30:32;;;;;;;6.62;4.10;;;;;;;7.21;61.12;100243.73;1727141;82;21440;-63
2022/05/01 05:32:59;;;;;;;8.03;4.08;;;;;;;7.22;61.16;100239.39;1729401;81;20970;-63
2022/05/01 05:35:26;;;;;;;9.17;4.57;;;;;;;7.26;61.25;100244.48;1730366;81;20920;-63
2022/05/01 05:38:09;;;;;;;6.05;3.87;;;;;;;7.30;61.31;100237.00;1724984;81;21166;-64
2022/05/01 05:40:29;;;;;;;9.73;3.90;;;;;;;7.40;61.42;100238.94;1705160;82;21474;-62
2022/05/01 05:42:56;;;;;;;6.50;3.75;;;;;;;7.50;61.49;100235.18;1717632;82;20979;-63
2022/05/01 05:45:22;;;;;;;7.47;3.67;;;;;;;7.64;61.70;100238.72;1716857;81;20967;-63
2022/05/01 05:47:51;;;;;;;5.33;3.58;;;;;;;7.74;61.72;100238.88;1738362;82;20957;-64
2022/05/01 05:50:18;;;;;;;5.87;3.60;;;;;;;7.87;61.77;100235.93;1741732;81;21089;-63
2022/05/01 05:52:45;;;;;;;4.83;3.50;;;;;;;8.05;61.86;100232.83;1722049;81;21076;-63
2022/05/01 05:55:12;;;;;;;6.00;3.52;;;;;;;8.27;61.97;100232.59;1720773;81;22165;-63
2022/05/01 05:57:39;;;;;;;6.58;3.72;;;;;;;8.59;62.07;100233.85;1710856;81;21528;-64
2022/05/01 06:00:07;;;;;;;3.63;2.60;;;;;;;9.01;62.19;100239.45;1733949;81;21629;-64
2022/05/01 06:02:33;;;;;;;6.55;3.27;;;;;;;9.48;62.14;100231.80;1724589;82;21262;-64
2022/05/01 06:05:00;;;;;;;6.67;3.37;;;;;;;9.92;62.00;100233.29;1701465;82;20980;-64
2022/05/01 06:07:26;;;;;;;7.28;3.52;;;;;;;10.43;61.92;100232.27;1705224;81;20936;-64
2022/05/01 06:09:53;;;;;;;8.85;4.00;;;;;;;10.73;61.72;100226.31;1739208;81;21433;-64
2022/05/01 06:12:20;;;;;;;5.07;3.70;;;;;;;10.92;61.60;100231.66;1742588;81;21466;-64
2022/05/01 06:14:46;;;;;;;7.97;2.87;;;;;;;11.15;61.67;100223.33;1733676;82;21299;-63
2022/05/01 06:17:13;;;;;;;4.17;2.22;;;;;;;11.33;61.42;100223.84;1737969;81;21200;-64
2022/05/01 06:19:40;;;;;;;5.17;2.70;;;;;;;11.42;61.16;100222.59;1723501;81;21493;-64
2022/05/01 06:22:07;;;;;;;6.37;2.85;;;;;;;11.49;60.99;100220.59;1718825;82;22034;-64
2022/05/01 06:24:33;;;;;;;4.97;2.92;;;;;;;11.86;61.30;100222.00;1716317;82;21074;-64
2022/05/01 06:27:01;;;;;;;4.67;2.65;;;;;;;12.36;61.12;100228.94;1714979;82;22386;-64
2022/05/01 06:29:27;;;;;;;4.85;2.87;;;;;;;12.53;60.52;100223.76;1723825;81;24262;-64
2022/05/01 06:31:54;;;;;;;6.03;2.85;;;;;;;12.43;60.25;100221.17;1715757;81;20960;-64
2022/05/01 06:34:21;;;;;;;5.62;2.70;;;;;;;12.27;60.15;100225.83;1713217;82;20943;-64
2022/05/01 06:36:47;;;;;;;4.30;2.40;;;;;;;12.17;60.26;100229.78;1730960;82;21597;-64
2022/05/01 06:39:14;;;;;;;5.72;2.47;;;;;;;12.12;60.17;100236.14;1734336;82;21221;-64
2022/05/01 06:41:41;;;;;;;5.37;3.00;;;;;;;12.01;60.06;100228.77;1721540;81;20920;-63
2022/05/01 06:44:08;;;;;;;3.60;2.40;;;;;;;11.98;60.22;100240.69;1728826;82;20912;-64
2022/05/01 06:46:34;;;;;;;6.53;2.60;;;;;;;11.94;59.89;100241.76;1708485;82;20935;-63
2022/05/01 06:49:01;;;;;;;3.65;2.72;;;;;;;11.82;59.91;100240.05;1727567;82;20995;-63
2022/05/01 06:51:28;;;;;;;4.35;2.85;;;;;;;11.73;59.70;100240.42;1727092;82;21177;-63
2022/05/01 06:53:54;;;;;;;6.40;2.77;;;;;;;11.69;59.82;100252.42;1732286;82;20944;-63
2022/05/01 06:56:21;;;;;;;3.98;2.72;;;;;;;11.67;59.77;100247.23;1715953;81;21141;-63
2022/05/01 06:58:48;;;;;;;5.53;3.10;;;;;;;11.77;60.02;100247.23;1712154;81;21010;-63
2022/05/01 07:01:15;;;;;;;4.87;3.10;;;;;;;11.92;59.77;100247.52;1721401;81;21233;-62
2022/05/01 07:03:42;;;;;;;4.55;3.22;;;;;;;12.02;59.81;100240.96;1720360;81;22067;-65
2022/05/01 07:06:08;;;;;;;4.10;2.65;;;;;;;12.06;59.76;100243.34;1721133;80;20997;-64
2022/05/01 07:08:35;;;;;;;2.75;2.37;;;;;;;12.18;59.72;100243.25;1737055;81;20973;-64
2022/05/01 07:11:02;;;;;;;8.03;2.70;;;;;;;12.34;59.82;100236.86;1730077;81;20951;-63
2022/05/01 07:13:29;;;;;;;6.70;2.45;;;;;;;12.59;59.71;100241.80;1723832;81;20926;-63
2022/05/01 07:15:55;;;;;;;4.10;2.77;;;;;;;12.61;59.83;100241.73;1733516;81;22173;-63
2022/05/01 07:18:23;;;;;;;4.33;2.63;;;;;;;12.87;60.07;100239.17;1727025;81;20974;-63
2022/05/01 07:20:49;;;;;;;6.45;3.05;;;;;;;13.09;59.59;100237.66;1711864;81;20904;-65
2022/05/01 07:23:21;;;;;;;10.03;2.77;;;;;;;13.38;59.87;100238.84;1731040;82;20897;-63
2022/05/01 07:25:44;;;;;;;4.03;2.80;;;;;;;13.71;59.73;100235.44;1718728;81;21061;-63
2022/05/01 07:28:11;;;;;;;4.53;2.52;;;;;;;13.93;59.59;100232.53;1721448;81;21045;-64
2022/05/01 07:30:38;;;;;;;5.78;2.87;;;;;;;14.15;59.36;100237.49;1725374;81;20983;-64
2022/05/01 07:33:05;;;;;;;5.35;3.05;;;;;;;14.37;59.28;100235.39;1716764;81;20961;-64
2022/05/01 07:35:33;;;;;;;4.78;2.77;;;;;;;14.71;58.79;100230.45;1728741;81;21522;-64
2022/05/01 07:37:59;;;;;;;3.55;2.25;;;;;;;15.08;59.36;100227.51;1735981;81;21530;-64
2022/05/01 07:40:28;;;;;;;6.92;2.42;;;;;;;15.38;58.31;100221.77;1732803;81;21879;-64
2022/05/01 07:42:58;;;;;;;5.35;2.62;;;;;;;15.40;58.28;100225.16;1683340;83;21024;-64
2022/05/01 07:45:24;;;;;;;4.30;3.02;;;;;;;15.60;58.00;100225.28;1716229;81;20991;-64
2022/05/01 07:47:51;;;;;;;6.80;3.15;;;;;;;15.92;58.17;100224.30;1707770;82;20941;-63
2022/05/01 07:50:20;;;;;;;5.10;2.90;;;;;;;16.16;57.65;100218.84;1680139;83;21582;-64
2022/05/01 07:52:47;;;;;;;4.35;2.40;;;;;;;16.42;57.58;100221.61;1700400;82;21709;-64
2022/05/01 07:55:14;;;;;;;5.03;2.75;;;;;;;16.53;57.00;100217.34;1699604;82;20935;-64
2022/05/01 07:57:42;;;;;;;2.83;2.00;;;;;;;16.49;56.67;100221.58;1687455;83;20962;-64
2022/05/01 08:00:10;;;;;;;4.08;2.40;;;;;;;16.60;56.34;100211.19;1723653;82;20938;-64
2022/05/01 08:04:28;;;;;;;8.30;2.80;;;;;;;16.55;56.07;100215.46;1694446;82;20971;-64
2022/05/01 08:05:06;;;;;;;7.95;2.35;;;;;;;16.83;56.13;100210.20;1730224;81;21516;-64
2022/05/01 08:07:33;;;;;;;5.45;2.70;;;;;;;17.00;55.92;100215.23;1696599;83;20958;-64
2022/05/01 08:10:00;;;;;;;3.40;2.05;;;;;;;17.25;55.77;100208.30;1717729;80;21094;-65
2022/05/01 08:12:27;;;;;;;5.15;2.10;;;;;;;17.55;55.26;100200.09;1703720;83;22313;-63
2022/05/01 08:14:54;;;;;;;3.70;1.85;;;;;;;17.68;54.77;100204.43;1725734;81;20949;-64
2022/05/01 08:17:20;;;;;;;6.25;1.95;;;;;;;17.66;54.50;100201.04;1739604;81;21085;-64
2022/05/01 08:22:32;;;;;;;3.02;1.82;;;;;;;18.03;53.91;100190.57;1720878;81;21048;-64
2022/05/01 08:24:58;;;;;;;3.75;1.90;;;;;;;18.24;53.28;100190.02;1732819;81;20978;-65
2022/05/01 08:27:25;;;;;;;5.08;1.47;;;;;;;18.28;52.89;100199.40;1733417;81;21020;-65
2022/05/01 08:29:52;;;;;;;4.67;1.42;;;;;;;18.19;51.95;100192.14;1725129;81;21183;-64
2022/05/01 08:32:18;;;;;;;2.17;1.10;;;;;;;18.15;51.72;100195.94;1725065;81;20941;-64
2022/05/01 08:34:47;;;;;;;1.95;1.37;;;;;;;17.63;48.47;100190.70;1698129;83;20907;-64
2022/05/01 08:37:14;;;;;;;6.00;1.70;;;;;;;16.77;47.82;100189.87;1740182;81;20989;-64
2022/05/01 08:39:40;;;;;;;4.78;1.65;;;;;;;16.17;47.00;100192.85;1721626;81;20994;-64
2022/05/01 08:42:07;;;;;;;2.65;1.30;;;;;;;15.91;48.82;100194.94;1724864;81;21363;-64
2022/05/01 08:44:36;;;;;;;;;;;;;;;16.18;49.36;100190.58;1727849;81;20915;-63
2022/05/01 08:47:23;;;;;;;3.70;1.55;;;;;;;16.57;49.11;100187.66;1720428;81;20072;-64
2022/05/01 08:49:55;;;;;;;2.20;1.27;;;;;;;16.36;47.48;100189.06;1730070;81;20953;-64
2022/05/01 08:52:23;;;;;;;4.03;2.00;;;;;;;16.13;48.25;100184.75;1720351;81;21715;-64
2022/05/01 08:54:51;;;;;;;5.28;1.70;;;;;;;16.18;47.83;100187.95;1722569;82;21081;-64
2022/05/01 08:57:21;;;;;;;5.12;2.02;;;;;;;15.85;46.29;100197.03;1727801;81;21051;-64
2022/05/01 08:59:53;;;;;;;2.90;2.10;;;;;;;15.51;46.55;100192.08;1688670;82;20946;-64
2022/05/01 09:02:22;;;;;;;3.15;1.92;;;;;;;15.43;46.70;100201.30;1677240;83;20973;-64
2022/05/01 09:04:50;;;;;;;3.95;2.62;;;;;;;15.70;46.71;100187.42;1724049;81;21020;-63
2022/05/01 09:07:17;;;;;;;6.90;2.45;;;;;;;16.05;47.66;100191.00;1710610;82;21111;-64
2022/05/01 09:09:44;;;;;;;3.50;2.40;;;;;;;16.51;46.70;100198.13;1711223;82;20941;-65
2022/05/01 09:14:56;;;;;;;6.72;2.67;;;;;;;16.99;47.22;100189.78;1719124;81;20949;-65
2022/05/01 09:17:24;;;;;;;3.67;2.45;;;;;;;17.48;47.09;100186.97;1729508;81;21690;-64
2022/05/01 09:20:06;;;;;;;;;;;;;;;17.86;46.52;100197.52;1713152;80;21254;-65
2022/05/01 09:22:51;;;;;;;4.40;2.50;;;;;;;17.97;46.31;100196.30;1729338;82;20196;-65
2022/05/01 09:25:22;;;;;;;3.55;2.60;;;;;;;17.67;44.88;100198.79;1720088;81;20989;-69
2022/05/01 09:27:51;;;;;;;7.65;2.27;;;;;;;17.13;44.65;100194.98;1699108;83;20970;-64
2022/05/01 09:30:22;;;;;;;10.00;2.67;;;;;;;16.62;43.51;100194.81;1721765;81;21553;-63
2022/05/01 09:32:54;;;;;;;5.70;2.22;;;;;;;16.73;45.33;100184.41;1711311;82;21819;-64
2022/05/01 09:35:35;;;;;;;6.53;2.37;;;;;;;17.35;45.45;100189.10;1703191;83;21033;-63
2022/05/01 09:38:25;;;;;;;6.42;2.25;;;;;;;17.73;45.28;100185.64;1712462;81;21614;-63
2022/05/01 09:40:59;;;;;;;3.98;2.60;;;;;;;17.99;45.10;100185.15;1686855;83;20957;-64
2022/05/01 09:43:43;;;;;;;4.10;2.20;;;;;;;18.13;44.64;100182.02;1688748;82;21603;-63
2022/05/01 09:46:25;;;;;;;4.25;2.25;;;;;;;17.68;41.84;100193.87;1715899;81;21545;-62
2022/05/01 09:49:01;;;;;;;4.65;2.02;;;;;;;16.54;41.65;100190.02;1730875;81;20981;-63
2022/05/01 09:51:33;;;;;;;1.83;1.33;;;;;;;15.91;41.00;100189.67;1707076;83;21082;-63
2022/05/01 09:54:04;;;;;;;4.30;2.10;;;;;;;15.63;42.12;100184.30;1713225;82;21855;-62
2022/05/01 09:56:49;;;;;;;2.77;1.90;;;;;;;15.71;42.69;100183.00;1710960;82;20882;-62
2022/05/01 09:59:18;;;;;;;3.70;1.72;;;;;;;15.73;42.96;100191.19;1701641;83;21171;-62
2022/05/01 10:02:03;;;;;;;5.30;2.02;;;;;;;15.98;42.88;100190.99;1695600;83;20925;-62
2022/05/01 10:04:36;;;;;;;4.75;1.60;;;;;;;15.63;41.64;100183.45;1705778;82;21487;-62
2022/05/01 10:07:04;;;;;;;2.27;1.55;;;;;;;15.35;42.10;100179.86;1714511;82;20907;-62
2022/05/01 10:09:34;;;;;;;5.60;2.08;;;;;;;15.29;41.57;100190.75;1713172;82;21014;-62
2022/05/01 10:12:10;;;;;;;4.20;1.50;;;;;;;14.91;41.10;100188.56;1709158;82;21972;-62
2022/05/01 10:14:37;;;;;;;4.47;2.15;;;;;;;14.78;41.92;100190.20;1713886;82;20899;-62
2022/05/01 10:17:04;;;;;;;4.00;1.90;;;;;;;14.57;41.41;100194.06;1723736;82;21441;-62
2022/05/01 10:19:31;;;;;;;6.72;2.00;;;;;;;14.30;41.72;100200.72;1680561;81;20997;-61
2022/05/01 10:22:03;;;;;;;4.20;2.00;;;;;;;14.07;41.79;100180.97;1729534;82;20946;-62
2022/05/01 10:24:30;;;;;;;5.08;1.87;;;;;;;14.32;41.88;100192.77;1724479;82;21168;-65
2022/05/01 10:27:00;;;;;;;;;;;;;;;14.50;41.59;100183.84;1731527;81;21579;-62
2022/05/01 10:33:01;;;;;;;5.12;1.82;;;;;;;14.97;42.03;100184.73;1727921;82;20943;-62
2022/05/01 10:36:06;;;;;;;3.50;2.30;;;;;;;15.15;40.61;100195.95;1726793;82;21530;-63
2022/05/01 10:38:55;;;;;;;3.27;2.05;;;;;;;14.93;40.69;100182.76;1696690;83;21132;-62
2022/05/01 10:41:22;;;;;;;3.45;1.70;;;;;;;15.16;42.24;100173.99;1719310;82;21003;-61
2022/05/01 10:43:59;;;;;;;2.60;1.77;;;;;;;15.37;41.91;100172.70;1731948;81;22175;-60
2022/05/01 10:46:35;;;;;;;3.85;1.98;;;;;;;14.95;41.28;100176.92;1694154;82;21015;-62
2022/05/01 10:49:05;;;;;;;3.58;1.50;;;;;;;15.03;41.86;100179.59;1704258;83;21506;-62
2022/05/01 10:51:41;;;;;;;3.20;1.85;;;;;;;15.43;41.19;100174.98;1716921;81;21065;-62
2022/05/01 10:54:19;;;;;;;4.97;2.10;;;;;;;15.49;41.78;100174.21;1699134;83;21003;-63
2022/05/01 10:56:53;;;;;;;3.95;1.65;;;;;;;15.35;40.96;100166.70;1728834;81;21013;-62
2022/05/01 10:59:39;;;;;;;4.33;1.77;;;;;;;15.31;41.46;100159.91;1677715;83;20975;-64
2022/05/01 11:02:22;;;;;;;4.17;1.40;;;;;;;15.49;41.92;100163.24;1675949;83;20969;-65
2022/05/01 11:04:51;;;;;;;3.47;1.50;;;;;;;15.60;40.03;100163.88;1717668;81;21931;-62
2022/05/01 11:07:25;;;;;;;4.45;1.90;;;;;;;15.47;41.23;100161.64;1725858;81;21660;-62
2022/05/01 11:09:55;;;;;;;3.37;1.75;;;;;;;15.44;39.75;100163.51;1725233;81;20940;-63
2022/05/01 11:12:26;;;;;;;3.37;1.42;;;;;;;15.09;39.75;100167.39;1717192;81;20985;-63
2022/05/01 11:14:59;;;;;;;2.12;1.10;;;;;;;14.78;39.23;100174.42;1694593;82;20996;-62
2022/05/01 11:17:44;;;;;;;3.08;1.52;;;;;;;14.77;40.17;100163.55;1724261;80;21053;-62
2022/05/01 11:20:24;;;;;;;4.00;1.45;;;;;;;14.84;38.91;100167.49;1675930;83;21965;-63
2022/05/01 11:22:52;;;;;;;5.80;1.70;;;;;;;15.03;40.39;100161.17;1731394;81;20948;-62
2022/05/01 11:25:40;;;;;;;5.08;1.22;;;;;;;15.38;40.26;100157.30;1734236;81;21055;-63
2022/05/01 11:28:07;;;;;;;1.95;1.20;;;;;;;15.53;38.65;100161.26;1701154;82;21081;-62
2022/05/01 11:30:37;;;;;;;3.12;1.40;;;;;;;15.37;39.39;100164.80;1707290;81;21081;-62
2022/05/01 11:33:10;;;;;;;1.90;1.30;;;;;;;15.54;38.68;100155.05;1709528;82;20994;-63
2022/05/01 11:36:01;;;;;;;4.45;1.45;;;;;;;15.60;39.28;100159.92;1729209;81;21397;-62
2022/05/01 11:38:49;;;;;;;1.50;1.10;;;;;;;15.91;39.44;100161.57;1724449;81;20977;-63
2022/05/01 11:41:17;;;;;;;6.53;1.22;;;;;;;15.86;38.62;100161.84;1717283;81;20883;-65
2022/05/01 11:43:43;;;;;;;4.47;1.27;;;;;;;15.89;39.58;100160.34;1707268;82;21159;-63
2022/05/01 11:46:19;;;;;;;3.00;1.42;;;;;;;15.83;38.81;100159.41;1705651;82;21876;-63
2022/05/01 11:48:49;;;;;;;4.45;1.50;;;;;;;15.76;38.67;100154.13;1723065;81;21002;-64
2022/05/01 11:51:17;;;;;;;2.87;1.60;;;;;;;15.82;39.29;100165.63;1684124;82;21066;-62
2022/05/01 11:53:46;;;;;;;1.98;1.32;;;;;;;15.79;38.52;100165.79;1715298;82;20993;-63
2022/05/01 12:04:37;;;;;;;8.75;2.00;;;;;;;14.66;39.71;100151.48;1719182;82;20984;-62
2022/05/01 12:07:15;;;;;;;5.10;1.50;;;;;;;14.54;39.88;100167.02;1698814;82;21606;-62
2022/05/01 12:09:44;;;;;;;3.92;2.05;;;;;;;14.22;40.05;100162.67;1734087;81;21542;-62
2022/05/01 12:12:20;;;;;;;2.50;1.67;;;;;;;14.23;40.27;100159.14;1722451;81;20930;-62